sensor_id;sensor_type;location;lat;lon;timestamp;pressure;altitude;pressure_sealevel;temperature;humidity
30708;BME280;17458;48.958;8.284;2023-04-04T00:02:16;101309.44;;;4.80;47.75
30708;BME280;17458;48.958;8.284;2023-04-04T00:05:01;101303.44;;;5.11;46.85
30708;BME280;17458;48.958;8.284;2023-04-04T00:07:46;101302.09;;;4.86;47.29
30708;BME280;17458;48.958;8.284;2023-04-04T00:10:30;101300.78;;;4.81;47.48
30708;BME280;17458;48.958;8.284;2023-04-04T00:13:14;101289.22;;;4.89;47.38
30708;BME280;17458;48.958;8.284;2023-04-04T00:15:58;101293.94;;;4.83;47.12
30708;BME280;17458;48.958;8.284;2023-04-04T00:18:42;101289.72;;;4.75;47.67
30708;BME280;17458;48.958;8.284;2023-04-04T00:21:26;101286.13;;;4.64;47.98
30708;BME280;17458;48.958;8.284;2023-04-04T00:24:10;101281.78;;;4.54;48.15
30708;BME280;17458;48.958;8.284;2023-04-04T00:26:55;101277.66;;;4.38;48.58
30708;BME280;17458;48.958;8.284;2023-04-04T00:29:39;101289.03;;;4.57;47.92
30708;BME280;17458;48.958;8.284;2023-04-04T00:32:23;101280.50;;;4.70;47.80
30708;BME280;17458;48.958;8.284;2023-04-04T00:35:07;101274.72;;;4.74;48.12
30708;BME280;17458;48.958;8.284;2023-04-04T00:37:52;101279.09;;;5.24;46.96
30708;BME280;17458;48.958;8.284;2023-04-04T00:40:41;101279.63;;;4.99;47.09
30708;BME280;17458;48.958;8.284;2023-04-04T00:43:26;101291.34;;;5.03;47.77
30708;BME280;17458;48.958;8.284;2023-04-04T00:46:10;101286.03;;;4.83;48.17
30708;BME280;17458;48.958;8.284;2023-04-04T00:48:58;101281.88;;;5.05;47.59
30708;BME280;17458;48.958;8.284;2023-04-04T00:51:41;101273.66;;;4.92;48.06
30708;BME280;17458;48.958;8.284;2023-04-04T00:54:25;101277.38;;;5.04;47.44
30708;BME280;17458;48.958;8.284;2023-04-04T00:57:10;101270.94;;;5.01;48.47
30708;BME280;17458;48.958;8.284;2023-04-04T00:59:56;101270.59;;;4.47;48.94
30708;BME280;17458;48.958;8.284;2023-04-04T01:02:40;101278.09;;;4.52;49.20
30708;BME280;17458;48.958;8.284;2023-04-04T01:05:25;101266.78;;;4.63;49.34
30708;BME280;17458;48.958;8.284;2023-04-04T01:08:09;101270.16;;;4.32;49.96
30708;BME280;17458;48.958;8.284;2023-04-04T01:10:53;101266.34;;;4.39;49.63
30708;BME280;17458;48.958;8.284;2023-04-04T01:13:38;101278.34;;;4.45;49.18
30708;BME280;17458;48.958;8.284;2023-04-04T01:16:22;101259.41;;;4.49;49.13
30708;BME280;17458;48.958;8.284;2023-04-04T01:19:10;101261.53;;;4.53;49.43
30708;BME280;17458;48.958;8.284;2023-04-04T01:21:58;101264.94;;;4.52;49.64
30708;BME280;17458;48.958;8.284;2023-04-04T01:24:50;101270.75;;;4.58;49.24
30708;BME280;17458;48.958;8.284;2023-04-04T01:27:35;101270.25;;;4.62;49.11
30708;BME280;17458;48.958;8.284;2023-04-04T01:30:28;101267.41;;;4.41;50.11
30708;BME280;17458;48.958;8.284;2023-04-04T01:33:20;101259.81;;;4.54;49.61
30708;BME280;17458;48.958;8.284;2023-04-04T01:36:22;101259.19;;;4.17;50.33
30708;BME280;17458;48.958;8.284;2023-04-04T01:42:04;101256.28;;;4.14;50.89
30708;BME280;17458;48.958;8.284;2023-04-04T01:44:56;101254.59;;;4.25;50.52
30708;BME280;17458;48.958;8.284;2023-04-04T01:47:45;101266.06;;;4.36;50.07
30708;BME280;17458;48.958;8.284;2023-04-04T01:50:33;101253.19;;;4.39;50.02
30708;BME280;17458;48.958;8.284;2023-04-04T01:53:17;101246.00;;;4.46;49.98
30708;BME280;17458;48.958;8.284;2023-04-04T01:56:01;101254.88;;;4.28;50.68
30708;BME280;17458;48.958;8.284;2023-04-04T01:58:48;101253.69;;;4.24;50.55
30708;BME280;17458;48.958;8.284;2023-04-04T02:01:32;101253.63;;;4.04;50.74
30708;BME280;17458;48.958;8.284;2023-04-04T02:04:17;101257.91;;;3.93;51.11
30708;BME280;17458;48.958;8.284;2023-04-04T02:07:01;101252.75;;;4.63;49.96
30708;BME280;17458;48.958;8.284;2023-04-04T02:09:45;101252.63;;;5.12;48.46
30708;BME280;17458;48.958;8.284;2023-04-04T02:12:29;101252.19;;;5.48;47.54
30708;BME280;17458;48.958;8.284;2023-04-04T02:15:13;101255.34;;;5.54;47.50
30708;BME280;17458;48.958;8.284;2023-04-04T02:17:57;101252.06;;;5.47;47.37
30708;BME280;17458;48.958;8.284;2023-04-04T02:20:41;101256.00;;;5.52;47.89
30708;BME280;17458;48.958;8.284;2023-04-04T02:23:26;101250.59;;;5.60;46.77
30708;BME280;17458;48.958;8.284;2023-04-04T02:26:10;101249.41;;;5.57;47.00
30708;BME280;17458;48.958;8.284;2023-04-04T02:28:54;101248.25;;;5.43;46.76
30708;BME280;17458;48.958;8.284;2023-04-04T02:31:39;101243.81;;;5.12;47.39
30708;BME280;17458;48.958;8.284;2023-04-04T02:34:25;101243.81;;;5.12;47.75
30708;BME280;17458;48.958;8.284;2023-04-04T02:37:09;101246.19;;;4.98;48.57
30708;BME280;17458;48.958;8.284;2023-04-04T02:39:53;101235.81;;;4.90;48.25
30708;BME280;17458;48.958;8.284;2023-04-04T02:42:44;101240.38;;;5.23;47.63
30708;BME280;17458;48.958;8.284;2023-04-04T02:45:28;101237.75;;;4.82;48.15
30708;BME280;17458;48.958;8.284;2023-04-04T02:48:21;101244.59;;;5.31;47.20
30708;BME280;17458;48.958;8.284;2023-04-04T02:51:07;101246.81;;;5.06;48.25
30708;BME280;17458;48.958;8.284;2023-04-04T02:53:52;101235.38;;;5.26;47.44
30708;BME280;17458;48.958;8.284;2023-04-04T02:56:44;101245.25;;;5.28;47.48
30708;BME280;17458;48.958;8.284;2023-04-04T02:59:28;101244.31;;;5.38;47.51
30708;BME280;17458;48.958;8.284;2023-04-04T03:02:13;101247.75;;;4.86;48.24
30708;BME280;17458;48.958;8.284;2023-04-04T03:04:57;101244.34;;;4.87;48.65
30708;BME280;17458;48.958;8.284;2023-04-04T03:07:40;101241.81;;;5.09;48.35
30708;BME280;17458;48.958;8.284;2023-04-04T03:10:27;101241.19;;;5.02;47.72
30708;BME280;17458;48.958;8.284;2023-04-04T03:13:14;101244.97;;;4.64;48.71
30708;BME280;17458;48.958;8.284;2023-04-04T03:16:03;101241.56;;;4.86;48.76
30708;BME280;17458;48.958;8.284;2023-04-04T03:18:59;101244.59;;;5.01;48.30
30708;BME280;17458;48.958;8.284;2023-04-04T03:21:44;101251.31;;;5.07;48.29
30708;BME280;17458;48.958;8.284;2023-04-04T03:24:29;101245.25;;;4.88;48.46
30708;BME280;17458;48.958;8.284;2023-04-04T03:27:13;101243.97;;;5.03;48.13
30708;BME280;17458;48.958;8.284;2023-04-04T03:29:58;101248.00;;;4.59;48.98
30708;BME280;17458;48.958;8.284;2023-04-04T03:32:47;101250.63;;;4.59;48.89
30708;BME280;17458;48.958;8.284;2023-04-04T03:35:32;101244.84;;;4.73;48.60
30708;BME280;17458;48.958;8.284;2023-04-04T03:38:19;101240.75;;;4.46;48.84
30708;BME280;17458;48.958;8.284;2023-04-04T03:41:05;101243.16;;;4.84;48.51
30708;BME280;17458;48.958;8.284;2023-04-04T03:43:50;101238.16;;;4.77;48.29
30708;BME280;17458;48.958;8.284;2023-04-04T03:46:34;101245.41;;;4.89;48.25
30708;BME280;17458;48.958;8.284;2023-04-04T03:49:18;101242.28;;;4.34;48.91
30708;BME280;17458;48.958;8.284;2023-04-04T03:52:02;101245.75;;;4.63;48.76
30708;BME280;17458;48.958;8.284;2023-04-04T03:54:47;101246.94;;;4.57;49.06
30708;BME280;17458;48.958;8.284;2023-04-04T03:57:31;101256.41;;;4.65;48.63
30708;BME280;17458;48.958;8.284;2023-04-04T04:00:16;101254.69;;;4.66;48.26
30708;BME280;17458;48.958;8.284;2023-04-04T04:03:02;101258.19;;;4.36;49.34
30708;BME280;17458;48.958;8.284;2023-04-04T04:05:46;101255.94;;;4.20;49.29
30708;BME280;17458;48.958;8.284;2023-04-04T04:08:30;101256.38;;;4.35;49.08
30708;BME280;17458;48.958;8.284;2023-04-04T04:11:14;101259.41;;;4.49;49.23
30708;BME280;17458;48.958;8.284;2023-04-04T04:13:58;101255.19;;;4.51;48.90
30708;BME280;17458;48.958;8.284;2023-04-04T04:16:43;101256.63;;;4.38;49.35
30708;BME280;17458;48.958;8.284;2023-04-04T04:19:31;101256.94;;;4.12;49.56
30708;BME280;17458;48.958;8.284;2023-04-04T04:22:14;101255.41;;;4.24;49.68
30708;BME280;17458;48.958;8.284;2023-04-04T04:25:00;101256.72;;;4.19;49.71
30708;BME280;17458;48.958;8.284;2023-04-04T04:27:44;101260.16;;;3.99;50.09
30708;BME280;17458;48.958;8.284;2023-04-04T04:30:30;101256.06;;;3.64;51.17
30708;BME280;17458;48.958;8.284;2023-04-04T04:33:14;101263.50;;;4.07;50.02
30708;BME280;17458;48.958;8.284;2023-04-04T04:36:10;101266.66;;;4.13;49.35
30708;BME280;17458;48.958;8.284;2023-04-04T04:39:05;101266.22;;;4.37;49.34
30708;BME280;17458;48.958;8.284;2023-04-04T04:41:54;101270.19;;;4.03;49.81
30708;BME280;17458;48.958;8.284;2023-04-04T04:44:40;101262.97;;;4.11;50.06
30708;BME280;17458;48.958;8.284;2023-04-04T04:47:24;101267.59;;;3.66;50.87
30708;BME280;17458;48.958;8.284;2023-04-04T04:50:09;101268.41;;;3.93;50.91
30708;BME280;17458;48.958;8.284;2023-04-04T04:52:58;101272.38;;;3.99;50.37
30708;BME280;17458;48.958;8.284;2023-04-04T04:55:44;101274.81;;;4.06;50.20
30708;BME280;17458;48.958;8.284;2023-04-04T04:58:29;101264.50;;;3.70;50.67
30708;BME280;17458;48.958;8.284;2023-04-04T05:01:16;101267.47;;;4.22;50.27
30708;BME280;17458;48.958;8.284;2023-04-04T05:04:00;101267.09;;;4.17;50.35
30708;BME280;17458;48.958;8.284;2023-04-04T05:06:54;101267.97;;;4.57;49.20
30708;BME280;17458;48.958;8.284;2023-04-04T05:09:38;101271.28;;;4.15;50.10
30708;BME280;17458;48.958;8.284;2023-04-04T05:12:22;101269.75;;;4.27;49.81
30708;BME280;17458;48.958;8.284;2023-04-04T05:15:10;101275.34;;;4.12;50.21
30708;BME280;17458;48.958;8.284;2023-04-04T05:18:01;101280.59;;;4.12;49.76
30708;BME280;17458;48.958;8.284;2023-04-04T05:20:53;101277.09;;;4.71;49.20
30708;BME280;17458;48.958;8.284;2023-04-04T05:23:38;101278.56;;;3.99;50.20
30708;BME280;17458;48.958;8.284;2023-04-04T05:26:23;101276.66;;;4.07;50.06
30708;BME280;17458;48.958;8.284;2023-04-04T05:29:10;101281.84;;;3.97;49.97
30708;BME280;17458;48.958;8.284;2023-04-04T05:31:58;101279.16;;;4.64;49.12
30708;BME280;17458;48.958;8.284;2023-04-04T05:34:43;101284.41;;;4.64;49.10
30708;BME280;17458;48.958;8.284;2023-04-04T05:37:32;101280.41;;;4.29;49.80
30708;BME280;17458;48.958;8.284;2023-04-04T05:40:17;101280.38;;;4.19;49.70
30708;BME280;17458;48.958;8.284;2023-04-04T05:43:06;101278.13;;;4.73;48.88
30708;BME280;17458;48.958;8.284;2023-04-04T05:46:02;101281.72;;;5.04;48.74
30708;BME280;17458;48.958;8.284;2023-04-04T05:48:51;101284.19;;;4.92;48.66
30708;BME280;17458;48.958;8.284;2023-04-04T05:51:36;101287.31;;;4.68;49.27
30708;BME280;17458;48.958;8.284;2023-04-04T05:54:31;101286.63;;;5.19;48.09
30708;BME280;17458;48.958;8.284;2023-04-04T05:57:19;101289.22;;;4.99;48.03
30708;BME280;17458;48.958;8.284;2023-04-04T06:00:09;101283.41;;;4.62;49.21
30708;BME280;17458;48.958;8.284;2023-04-04T06:02:58;101290.53;;;5.24;48.04
30708;BME280;17458;48.958;8.284;2023-04-04T06:05:43;101284.88;;;4.99;48.72
30708;BME280;17458;48.958;8.284;2023-04-04T06:08:27;101286.41;;;4.77;48.35
30708;BME280;17458;48.958;8.284;2023-04-04T06:11:11;101288.97;;;5.47;48.31
30708;BME280;17458;48.958;8.284;2023-04-04T06:13:55;101281.91;;;5.67;46.95
30708;BME280;17458;48.958;8.284;2023-04-04T06:16:41;101295.50;;;5.62;46.50
30708;BME280;17458;48.958;8.284;2023-04-04T06:19:25;101289.78;;;5.78;47.04
30708;BME280;17458;48.958;8.284;2023-04-04T06:22:09;101289.63;;;5.24;47.66
30708;BME280;17458;48.958;8.284;2023-04-04T06:24:59;101292.63;;;5.39;47.53
30708;BME280;17458;48.958;8.284;2023-04-04T06:27:44;101279.38;;;5.17;47.37
30708;BME280;17458;48.958;8.284;2023-04-04T06:30:29;101290.28;;;5.42;47.19
30708;BME280;17458;48.958;8.284;2023-04-04T06:33:13;101288.59;;;5.94;45.87
30708;BME280;17458;48.958;8.284;2023-04-04T06:36:01;101292.75;;;5.20;47.11
30708;BME280;17458;48.958;8.284;2023-04-04T06:38:45;101291.44;;;5.55;46.60
30708;BME280;17458;48.958;8.284;2023-04-04T06:41:38;101295.41;;;5.30;46.96
30708;BME280;17458;48.958;8.284;2023-04-04T06:44:22;101294.69;;;5.63;46.62
30708;BME280;17458;48.958;8.284;2023-04-04T06:47:07;101292.50;;;5.37;47.30
30708;BME280;17458;48.958;8.284;2023-04-04T06:49:51;101290.28;;;5.31;47.07
30708;BME280;17458;48.958;8.284;2023-04-04T06:52:35;101279.78;;;5.94;45.92
30708;BME280;17458;48.958;8.284;2023-04-04T06:55:20;101289.28;;;5.82;45.81
30708;BME280;17458;48.958;8.284;2023-04-04T06:58:06;101283.13;;;5.61;46.37
30708;BME280;17458;48.958;8.284;2023-04-04T07:00:51;101287.38;;;6.43;44.73
30708;BME280;17458;48.958;8.284;2023-04-04T07:03:35;101292.81;;;6.02;44.93
30708;BME280;17458;48.958;8.284;2023-04-04T07:06:21;101283.81;;;6.32;44.69
30708;BME280;17458;48.958;8.284;2023-04-04T07:09:05;101276.75;;;6.53;44.04
30708;BME280;17458;48.958;8.284;2023-04-04T07:11:49;101282.28;;;6.56;43.90
30708;BME280;17458;48.958;8.284;2023-04-04T07:14:33;101280.59;;;6.25;44.51
30708;BME280;17458;48.958;8.284;2023-04-04T07:17:17;101280.25;;;6.42;43.41
30708;BME280;17458;48.958;8.284;2023-04-04T07:20:01;101289.94;;;6.21;44.30
30708;BME280;17458;48.958;8.284;2023-04-04T07:22:45;101283.91;;;6.66;43.13
30708;BME280;17458;48.958;8.284;2023-04-04T07:25:30;101286.66;;;6.89;42.16
30708;BME280;17458;48.958;8.284;2023-04-04T07:28:13;101285.06;;;7.25;43.05
30708;BME280;17458;48.958;8.284;2023-04-04T07:30:59;101285.22;;;7.04;nan
30708;BME280;17458;48.958;8.284;2023-04-04T07:33:45;101280.53;;;6.79;42.82
30708;BME280;17458;48.958;8.284;2023-04-04T07:36:30;101281.47;;;6.57;42.12
30708;BME280;17458;48.958;8.284;2023-04-04T07:39:14;101277.19;;;7.48;41.23
30708;BME280;17458;48.958;8.284;2023-04-04T07:41:58;101281.59;;;7.82;40.50
30708;BME280;17458;48.958;8.284;2023-04-04T07:44:42;101267.38;;;6.90;41.79
30708;BME280;17458;48.958;8.284;2023-04-04T07:47:31;101269.13;;;7.35;40.60
30708;BME280;17458;48.958;8.284;2023-04-04T07:50:15;101274.00;;;6.73;42.18
30708;BME280;17458;48.958;8.284;2023-04-04T07:52:59;101273.84;;;7.05;41.33
30708;BME280;17458;48.958;8.284;2023-04-04T07:55:44;101280.56;;;7.57;40.80
30708;BME280;17458;48.958;8.284;2023-04-04T07:58:28;101269.19;;;7.13;40.84
30708;BME280;17458;48.958;8.284;2023-04-04T08:01:12;101265.13;;;7.40;41.50
30708;BME280;17458;48.958;8.284;2023-04-04T08:03:56;101269.03;;;8.27;39.98
30708;BME280;17458;48.958;8.284;2023-04-04T08:06:40;101268.03;;;8.13;39.68
30708;BME280;17458;48.958;8.284;2023-04-04T08:09:24;101272.72;;;8.05;39.61
30708;BME280;17458;48.958;8.284;2023-04-04T08:12:08;101276.44;;;7.84;39.43
30708;BME280;17458;48.958;8.284;2023-04-04T08:14:52;101266.66;;;7.71;39.84
30708;BME280;17458;48.958;8.284;2023-04-04T08:17:36;101263.97;;;7.60;39.71
30708;BME280;17458;48.958;8.284;2023-04-04T08:20:21;101274.44;;;8.16;39.52
30708;BME280;17458;48.958;8.284;2023-04-04T08:23:05;101268.69;;;7.87;39.67
30708;BME280;17458;48.958;8.284;2023-04-04T08:25:49;101266.06;;;8.34;38.31
30708;BME280;17458;48.958;8.284;2023-04-04T08:28:33;101271.47;;;8.00;38.73
30708;BME280;17458;48.958;8.284;2023-04-04T08:31:17;101271.56;;;8.02;38.57
30708;BME280;17458;48.958;8.284;2023-04-04T08:34:02;101271.00;;;8.77;38.63
30708;BME280;17458;48.958;8.284;2023-04-04T08:36:45;101273.09;;;8.10;38.63
30708;BME280;17458;48.958;8.284;2023-04-04T08:39:29;101268.94;;;8.13;39.31
30708;BME280;17458;48.958;8.284;2023-04-04T08:42:14;101268.44;;;8.54;38.75
30708;BME280;17458;48.958;8.284;2023-04-04T08:45:00;101272.63;;;9.00;37.98
30708;BME280;17458;48.958;8.284;2023-04-04T08:47:47;101273.13;;;8.95;37.97
30708;BME280;17458;48.958;8.284;2023-04-04T08:50:33;101272.38;;;8.72;36.91
30708;BME280;17458;48.958;8.284;2023-04-04T08:53:21;101263.59;;;8.85;36.78
30708;BME280;17458;48.958;8.284;2023-04-04T08:56:05;101266.34;;;9.36;37.00
30708;BME280;17458;48.958;8.284;2023-04-04T08:58:49;101267.50;;;9.53;36.71
30708;BME280;17458;48.958;8.284;2023-04-04T09:01:34;101263.44;;;9.84;37.23
30708;BME280;17458;48.958;8.284;2023-04-04T09:04:20;101266.41;;;9.89;36.10
30708;BME280;17458;48.958;8.284;2023-04-04T09:07:04;101263.59;;;8.85;36.84
30708;BME280;17458;48.958;8.284;2023-04-04T09:09:48;101263.38;;;9.45;37.21
30708;BME280;17458;48.958;8.284;2023-04-04T09:12:35;101270.41;;;10.09;36.51
30708;BME280;17458;48.958;8.284;2023-04-04T09:15:20;101256.03;;;10.18;35.51
30708;BME280;17458;48.958;8.284;2023-04-04T09:18:04;101262.22;;;9.79;36.04
30708;BME280;17458;48.958;8.284;2023-04-04T09:20:57;101260.38;;;9.65;35.92
30708;BME280;17458;48.958;8.284;2023-04-04T09:23:43;101251.78;;;9.69;35.66
30708;BME280;17458;48.958;8.284;2023-04-04T09:26:49;101272.06;;;9.17;37.17
30708;BME280;17458;48.958;8.284;2023-04-04T09:29:34;101254.56;;;8.70;38.80
30708;BME280;17458;48.958;8.284;2023-04-04T09:32:22;101262.59;;;8.23;38.49
30708;BME280;17458;48.958;8.284;2023-04-04T09:35:08;101254.63;;;9.08;36.88
30708;BME280;17458;48.958;8.284;2023-04-04T09:37:56;101258.31;;;9.10;37.21
30708;BME280;17458;48.958;8.284;2023-04-04T09:40:41;101251.53;;;9.02;35.74
30708;BME280;17458;48.958;8.284;2023-04-04T09:43:26;101253.38;;;9.41;36.02
30708;BME280;17458;48.958;8.284;2023-04-04T09:46:13;101258.88;;;8.44;37.20
30708;BME280;17458;48.958;8.284;2023-04-04T09:49:01;101258.63;;;8.65;37.21
30708;BME280;17458;48.958;8.284;2023-04-04T09:51:48;101253.66;;;8.69;37.30
30708;BME280;17458;48.958;8.284;2023-04-04T09:54:35;101246.81;;;8.73;37.81
30708;BME280;17458;48.958;8.284;2023-04-04T09:57:20;101247.16;;;8.77;37.01
30708;BME280;17458;48.958;8.284;2023-04-04T10:00:05;101252.66;;;9.30;37.23
30708;BME280;17458;48.958;8.284;2023-04-04T10:02:53;101248.97;;;9.79;36.66
30708;BME280;17458;48.958;8.284;2023-04-04T10:05:41;101239.25;;;9.93;35.82
30708;BME280;17458;48.958;8.284;2023-04-04T10:08:27;101248.13;;;9.54;36.41
30708;BME280;17458;48.958;8.284;2023-04-04T10:11:11;101251.19;;;9.73;36.95
30708;BME280;17458;48.958;8.284;2023-04-04T10:13:56;101258.50;;;9.38;37.38
30708;BME280;17458;48.958;8.284;2023-04-04T10:16:44;101256.22;;;9.82;37.00
30708;BME280;17458;48.958;8.284;2023-04-04T10:19:28;101253.13;;;10.02;35.67
30708;BME280;17458;48.958;8.284;2023-04-04T10:22:13;101243.41;;;9.50;35.89
30708;BME280;17458;48.958;8.284;2023-04-04T10:24:59;101254.38;;;9.68;35.70
30708;BME280;17458;48.958;8.284;2023-04-04T10:27:43;101249.44;;;9.74;35.98
30708;BME280;17458;48.958;8.284;2023-04-04T10:30:27;101253.81;;;9.47;36.60
30708;BME280;17458;48.958;8.284;2023-04-04T10:33:18;101250.91;;;9.95;36.35
30708;BME280;17458;48.958;8.284;2023-04-04T10:36:06;101245.97;;;9.48;35.75
30708;BME280;17458;48.958;8.284;2023-04-04T10:39:22;101248.53;;;9.73;36.41
30708;BME280;17458;48.958;8.284;2023-04-04T10:42:09;101239.06;;;9.90;35.98
30708;BME280;17458;48.958;8.284;2023-04-04T10:44:54;101236.63;;;9.93;35.87
30708;BME280;17458;48.958;8.284;2023-04-04T10:47:40;101241.09;;;9.81;36.21
30708;BME280;17458;48.958;8.284;2023-04-04T10:50:24;101244.00;;;10.64;36.03
30708;BME280;17458;48.958;8.284;2023-04-04T10:53:09;101245.59;;;11.18;34.80
30708;BME280;17458;48.958;8.284;2023-04-04T10:55:53;101237.81;;;10.79;34.30
30708;BME280;17458;48.958;8.284;2023-04-04T10:58:39;101231.78;;;10.40;35.58
30708;BME280;17458;48.958;8.284;2023-04-04T11:01:48;101231.41;;;10.08;35.83
30708;BME280;17458;48.958;8.284;2023-04-04T11:07:16;101237.69;;;9.57;35.84
30708;BME280;17458;48.958;8.284;2023-04-04T11:10:00;101227.13;;;10.64;35.91
30708;BME280;17458;48.958;8.284;2023-04-04T11:12:44;101222.06;;;10.41;34.63
30708;BME280;17458;48.958;8.284;2023-04-04T11:21:20;101211.97;;;10.76;35.53
30708;BME280;17458;48.958;8.284;2023-04-04T11:24:13;101215.59;;;10.22;34.70
30708;BME280;17458;48.958;8.284;2023-04-04T11:26:58;101215.25;;;10.31;34.47
30708;BME280;17458;48.958;8.284;2023-04-04T11:29:50;101209.34;;;10.63;34.41
30708;BME280;17458;48.958;8.284;2023-04-04T11:32:42;101210.16;;;10.62;34.72
30708;BME280;17458;48.958;8.284;2023-04-04T11:35:30;101218.00;;;10.74;34.89
30708;BME280;17458;48.958;8.284;2023-04-04T11:38:14;101211.06;;;9.69;35.58
30708;BME280;17458;48.958;8.284;2023-04-04T11:40:59;101211.19;;;10.10;34.94
30708;BME280;17458;48.958;8.284;2023-04-04T11:43:44;101208.00;;;10.15;35.34
30708;BME280;17458;48.958;8.284;2023-04-04T11:46:29;101200.25;;;10.05;34.71
30708;BME280;17458;48.958;8.284;2023-04-04T11:49:16;101200.50;;;10.49;34.05
30708;BME280;17458;48.958;8.284;2023-04-04T11:52:06;101186.16;;;11.03;34.24
30708;BME280;17458;48.958;8.284;2023-04-04T11:54:51;101196.19;;;11.07;34.49
30708;BME280;17458;48.958;8.284;2023-04-04T11:57:40;101184.78;;;10.52;34.10
30708;BME280;17458;48.958;8.284;2023-04-04T12:00:29;101196.31;;;10.40;34.61
30708;BME280;17458;48.958;8.284;2023-04-04T12:03:15;101191.56;;;10.62;35.07
30708;BME280;17458;48.958;8.284;2023-04-04T12:06:00;101190.59;;;10.47;34.06
30708;BME280;17458;48.958;8.284;2023-04-04T12:08:44;101184.00;;;10.27;34.05
30708;BME280;17458;48.958;8.284;2023-04-04T12:11:35;101175.13;;;10.54;35.85
30708;BME280;17458;48.958;8.284;2023-04-04T12:14:21;101172.88;;;11.03;35.26
30708;BME280;17458;48.958;8.284;2023-04-04T12:17:05;101183.91;;;10.81;34.12
30708;BME280;17458;48.958;8.284;2023-04-04T12:19:50;101168.59;;;11.05;34.17
30708;BME280;17458;48.958;8.284;2023-04-04T12:22:34;101186.25;;;10.90;34.06
30708;BME280;17458;48.958;8.284;2023-04-04T12:25:20;101178.47;;;11.37;33.76
30708;BME280;17458;48.958;8.284;2023-04-04T12:28:04;101171.41;;;11.52;33.22
30708;BME280;17458;48.958;8.284;2023-04-04T12:30:50;101174.25;;;11.26;32.97
30708;BME280;17458;48.958;8.284;2023-04-04T12:33:35;101182.53;;;10.73;33.46
30708;BME280;17458;48.958;8.284;2023-04-04T12:36:19;101173.03;;;10.77;33.53
30708;BME280;17458;48.958;8.284;2023-04-04T12:39:06;101174.44;;;11.14;34.45
30708;BME280;17458;48.958;8.284;2023-04-04T12:42:00;101174.03;;;10.79;34.11
30708;BME280;17458;48.958;8.284;2023-04-04T12:44:45;101178.78;;;10.84;33.33
30708;BME280;17458;48.958;8.284;2023-04-04T12:47:29;101170.56;;;10.80;33.25
30708;BME280;17458;48.958;8.284;2023-04-04T12:50:22;101162.84;;;10.84;33.42
30708;BME280;17458;48.958;8.284;2023-04-04T12:53:06;101158.72;;;10.75;33.81
30708;BME280;17458;48.958;8.284;2023-04-04T12:55:51;101150.06;;;11.36;32.93
30708;BME280;17458;48.958;8.284;2023-04-04T12:58:36;101149.88;;;11.77;33.23
30708;BME280;17458;48.958;8.284;2023-04-04T13:01:20;101151.16;;;11.25;32.54
30708;BME280;17458;48.958;8.284;2023-04-04T13:04:07;101139.97;;;11.30;32.21
30708;BME280;17458;48.958;8.284;2023-04-04T13:06:51;101134.38;;;11.26;33.21
30708;BME280;17458;48.958;8.284;2023-04-04T13:09:35;101148.13;;;11.04;32.87
30708;BME280;17458;48.958;8.284;2023-04-04T13:12:20;101145.13;;;10.70;33.29
30708;BME280;17458;48.958;8.284;2023-04-04T13:15:04;101136.22;;;11.27;34.34
30708;BME280;17458;48.958;8.284;2023-04-04T13:17:54;101141.28;;;11.08;33.30
30708;BME280;17458;48.958;8.284;2023-04-04T13:20:38;101131.47;;;11.07;32.49
30708;BME280;17458;48.958;8.284;2023-04-04T13:23:22;101126.47;;;11.42;32.71
30708;BME280;17458;48.958;8.284;2023-04-04T13:26:07;101123.25;;;11.62;33.31
30708;BME280;17458;48.958;8.284;2023-04-04T13:28:52;101124.50;;;12.15;32.93
30708;BME280;17458;48.958;8.284;2023-04-04T13:31:36;101129.72;;;12.13;32.85
30708;BME280;17458;48.958;8.284;2023-04-04T13:34:21;101121.88;;;11.54;32.41
30708;BME280;17458;48.958;8.284;2023-04-04T13:37:06;101121.25;;;10.85;32.94
30708;BME280;17458;48.958;8.284;2023-04-04T13:39:50;101128.41;;;11.00;32.85
30708;BME280;17458;48.958;8.284;2023-04-04T13:42:34;101112.41;;;10.56;33.64
30708;BME280;17458;48.958;8.284;2023-04-04T13:45:19;101112.94;;;11.08;32.83
30708;BME280;17458;48.958;8.284;2023-04-04T13:48:03;101110.06;;;11.49;33.24
30708;BME280;17458;48.958;8.284;2023-04-04T13:50:47;101114.03;;;11.26;32.97
30708;BME280;17458;48.958;8.284;2023-04-04T13:53:34;101104.63;;;11.93;32.44
30708;BME280;17458;48.958;8.284;2023-04-04T13:56:18;101101.19;;;11.80;32.29
30708;BME280;17458;48.958;8.284;2023-04-04T13:59:02;101099.81;;;11.11;32.54
30708;BME280;17458;48.958;8.284;2023-04-04T14:01:46;101104.31;;;11.87;33.20
30708;BME280;17458;48.958;8.284;2023-04-04T14:04:30;101100.91;;;11.75;31.90
30708;BME280;17458;48.958;8.284;2023-04-04T14:07:14;101093.56;;;11.86;31.94
30708;BME280;17458;48.958;8.284;2023-04-04T14:09:58;101095.09;;;12.13;32.26
30708;BME280;17458;48.958;8.284;2023-04-04T14:12:42;101095.59;;;11.90;32.83
30708;BME280;17458;48.958;8.284;2023-04-04T14:15:27;101088.75;;;11.64;32.72
30708;BME280;17458;48.958;8.284;2023-04-04T14:18:11;101086.03;;;12.10;32.10
30708;BME280;17458;48.958;8.284;2023-04-04T14:20:55;101088.78;;;12.11;32.48
30708;BME280;17458;48.958;8.284;2023-04-04T14:23:39;101087.63;;;11.75;32.36
30708;BME280;17458;48.958;8.284;2023-04-04T14:26:23;101090.16;;;11.88;31.92
30708;BME280;17458;48.958;8.284;2023-04-04T14:29:08;101082.88;;;11.55;32.15
30708;BME280;17458;48.958;8.284;2023-04-04T14:31:52;101094.00;;;11.48;31.94
30708;BME280;17458;48.958;8.284;2023-04-04T14:34:38;101084.97;;;12.06;33.03
30708;BME280;17458;48.958;8.284;2023-04-04T14:37:21;101082.97;;;12.18;32.09
30708;BME280;17458;48.958;8.284;2023-04-04T14:40:06;101095.28;;;12.16;31.52
30708;BME280;17458;48.958;8.284;2023-04-04T14:42:50;101085.22;;;11.80;32.61
30708;BME280;17458;48.958;8.284;2023-04-04T14:45:34;101088.91;;;11.21;33.36
30708;BME280;17458;48.958;8.284;2023-04-04T14:48:18;101081.69;;;11.64;32.65